Time;durP1;ratioP1;P1;durP2;ratioP2;P2;SDS_P1;SDS_P2;PMS_P1;PMS_P2;Temp;Humidity;BMP_temperature;BMP_pressure;BME280_temperature;BME280_humidity;BME280_pressure;Samples;Min_cycle;Max_cycle;Signal;HPM_P1;HPM_P2
2022/04/16 00:00:17;;;;;;;10.70;6.15;;;14.10;99.90;;;;;;4956738;29;20039;-63
2022/04/16 00:02:47;;;;;;;8.90;5.82;;;14.00;99.90;;;;;;4956721;29;20203;-63
2022/04/16 00:05:13;;;;;;;7.55;5.05;;;14.10;99.90;;;;;;4956483;29;20038;-63
2022/04/16 00:07:40;;;;;;;14.77;5.40;;;14.10;99.90;;;;;;4956595;29;20035;-63
2022/04/16 00:10:07;;;;;;;6.93;4.47;;;14.10;99.90;;;;;;4956345;29;20507;-63
2022/04/16 00:12:33;;;;;;;9.93;5.35;;;14.00;99.90;;;;;;4956499;29;20042;-63
2022/04/16 00:15:06;;;;;;;7.45;4.95;;;14.00;99.90;;;;;;4956489;29;20078;-63
2022/04/16 00:17:32;;;;;;;7.47;4.75;;;14.00;99.90;;;;;;4956759;29;20078;-63
2022/04/16 00:19:58;;;;;;;7.93;4.50;;;14.00;99.90;;;;;;4939054;29;20031;-63
2022/04/16 00:22:24;;;;;;;8.20;4.70;;;13.90;99.90;;;;;;4939067;29;20047;-63
2022/04/16 00:24:50;;;;;;;12.63;5.45;;;13.90;99.90;;;;;;4939131;29;20464;-63
2022/04/16 00:27:17;;;;;;;6.78;5.38;;;13.80;99.90;;;;;;4956298;29;20499;-63
2022/04/16 00:29:43;;;;;;;10.70;4.80;;;13.80;99.90;;;;;;4955643;28;20049;-63
2022/04/16 00:32:09;;;;;;;9.30;4.47;;;13.70;99.90;;;;;;4956136;29;20027;-63
2022/04/16 00:34:35;;;;;;;6.82;4.95;;;13.70;99.90;;;;;;4956380;29;20345;-63
2022/04/16 00:37:01;;;;;;;39.13;21.02;;;13.60;99.90;;;;;;4938807;29;20380;-63
2022/04/16 00:39:27;;;;;;;48.63;29.25;;;13.50;99.90;;;;;;4938732;29;20031;-62
2022/04/16 00:41:53;;;;;;;30.83;17.55;;;13.40;99.90;;;;;;4938699;29;20172;-63
2022/04/16 00:44:20;;;;;;;20.42;12.00;;;13.30;99.90;;;;;;4955938;29;20077;-63
2022/04/16 00:46:47;;;;;;;14.52;8.68;;;13.20;99.90;;;;;;4938644;29;20061;-63
2022/04/16 00:49:14;;;;;;;14.25;7.57;;;13.20;99.90;;;;;;4955870;29;20035;-62
2022/04/16 00:51:43;;;;;;;13.05;6.65;;;13.30;99.90;;;;;;4938565;29;20034;-63
2022/04/16 00:54:10;;;;;;;11.65;5.80;;;13.20;99.90;;;;;;4938502;29;20524;-63
2022/04/16 00:56:36;;;;;;;9.95;6.05;;;13.20;99.90;;;;;;4938525;29;20048;-63
2022/04/16 00:59:04;;;;;;;8.52;5.60;;;13.20;99.90;;;;;;4955275;29;20054;-64
2022/04/16 01:01:33;;;;;;;10.82;5.93;;;13.10;99.90;;;;;;4955311;29;20483;-64
2022/04/16 01:03:59;;;;;;;8.73;5.03;;;13.10;99.90;;;;;;4955586;29;20043;-63
2022/04/16 01:06:38;;;;;;;10.52;6.32;;;13.10;99.90;;;;;;4955657;29;20110;-62
2022/04/16 01:09:04;;;;;;;10.35;6.32;;;13.10;99.90;;;;;;4955564;29;20026;-63
2022/04/16 01:11:32;;;;;;;12.10;7.22;;;13.00;99.90;;;;;;4955501;29;20054;-63
2022/04/16 01:14:01;;;;;;;14.43;7.22;;;13.00;99.90;;;;;;4955457;29;20027;-64
2022/04/16 01:16:32;;;;;;;12.95;7.03;;;13.00;99.90;;;;;;4938166;29;20031;-64
2022/04/16 01:18:58;;;;;;;10.27;6.43;;;12.90;99.90;;;;;;4955479;29;20031;-63
2022/04/16 01:21:24;;;;;;;14.27;6.60;;;12.90;99.90;;;;;;4955322;29;20035;-62
2022/04/16 01:23:51;;;;;;;7.97;6.10;;;12.80;99.90;;;;;;4938057;29;20039;-62
2022/04/16 01:26:17;;;;;;;9.90;5.22;;;12.70;99.90;;;;;;4955055;29;20498;-63
2022/04/16 01:28:43;;;;;;;10.82;5.43;;;12.70;99.90;;;;;;4955304;29;20146;-63
2022/04/16 01:31:10;;;;;;;13.25;5.47;;;12.70;99.90;;;;;;4955472;29;20114;-63
2022/04/16 01:33:36;;;;;;;9.65;5.28;;;12.60;99.90;;;;;;4937904;29;20388;-63
2022/04/16 01:36:02;;;;;;;14.32;6.68;;;12.60;99.90;;;;;;4955233;29;20114;-62
2022/04/16 01:38:27;;;;;;;10.70;5.75;;;12.50;99.90;;;;;;4955150;29;20106;-62
2022/04/16 01:40:55;;;;;;;13.90;5.90;;;;;;;;;;4955043;29;20380;-62
2022/04/16 01:43:21;;;;;;;12.35;6.25;;;;;;;;;;4954770;29;20058;-62
2022/04/16 01:45:49;;;;;;;11.10;6.03;;;;;;;;;;4937891;29;20034;-62
2022/04/16 01:48:16;;;;;;;11.98;5.78;;;;;;;;;;4955023;29;20035;-63
2022/04/16 01:50:42;;;;;;;14.50;6.13;;;;;;;;;;4954743;29;20039;-63
2022/04/16 01:53:09;;;;;;;9.70;5.82;;;;;;;;;;4955002;29;20073;-63
2022/04/16 01:55:35;;;;;;;17.45;6.93;;;;;;;;;;4954982;29;20024;-62
2022/04/16 01:58:04;;;;;;;13.30;6.03;;;;;;;;;;4937380;29;20051;-63
2022/04/16 02:00:30;;;;;;;9.52;6.15;;;;;;;;;;4954866;29;20089;-63
2022/04/16 02:02:57;;;;;;;11.52;6.13;;;;;;;;;;4937672;29;20035;-63
2022/04/16 02:05:24;;;;;;;9.25;6.57;;;;;;;;;;4937607;29;20097;-63
2022/04/16 02:07:50;;;;;;;12.82;7.22;;;;;;;;;;4954863;29;20031;-63
2022/04/16 02:10:17;;;;;;;15.40;6.95;;;;;;;;;;4955035;29;20093;-63
2022/04/16 02:12:44;;;;;;;12.95;7.10;;;;;;;;;;4954823;29;20023;-63
2022/04/16 02:15:10;;;;;;;49.47;9.13;;;;;;;;;;4955021;29;20113;-63
2022/04/16 02:17:37;;;;;;;16.35;7.93;;;;;;;;;;4937547;29;20039;-63
2022/04/16 02:20:06;;;;;;;12.68;7.13;;;;;;;;;;4937495;29;20063;-63
2022/04/16 02:22:48;;;;;;;12.70;7.28;;;;;;;;;;4954720;29;20063;-62
2022/04/16 02:25:14;;;;;;;;;;;;;;;;;;4955124;29;20023;-62
2022/04/16 02:27:41;;;;;;;10.75;7.15;;;;;;;;;;4954725;29;19950;-62
2022/04/16 02:30:12;;;;;;;10.15;7.28;;;;;;;;;;4937434;29;20058;-62
2022/04/16 02:32:39;;;;;;;12.35;8.02;;;;;;;;;;4954605;29;20050;-62
2022/04/16 02:35:09;;;;;;;12.90;7.47;;;;;;;;;;4954621;29;20477;-62
2022/04/16 02:37:35;;;;;;;9.85;7.43;;;;;;;;;;4954669;29;20023;-63
2022/04/16 02:40:01;;;;;;;12.75;7.20;;;;;;;;;;4954539;29;20061;-63
2022/04/16 02:42:28;;;;;;;21.92;8.55;;;;;;;;;;4954538;29;20027;-63
2022/04/16 02:47:39;;;;;;;12.75;7.00;;;;;;;;;;4954305;29;20042;-63
2022/04/16 02:50:05;;;;;;;13.27;7.55;;;;;;;;;;4954167;29;20443;-63
2022/04/16 02:52:36;;;;;;;14.48;7.35;;;;;;;;;;4954986;28;20031;-64
2022/04/16 02:55:04;;;;;;;11.20;7.55;;;;;;;;;;4958036;29;20055;-62
2022/04/16 02:57:33;;;;;;;12.13;7.72;;;;;;;;;;4957788;29;20031;-62
2022/04/16 02:59:59;;;;;;;12.18;8.15;;;;;;;;;;4957864;29;20055;-62
2022/04/16 03:02:26;;;;;;;11.77;8.55;;;;;;;;;;4940586;29;20035;-63
2022/04/16 03:04:54;;;;;;;11.32;7.88;;;;;;;;;;4958061;29;20073;-62
2022/04/16 03:07:20;;;;;;;13.93;8.27;;;;;;;;;;4957803;29;20023;-63
2022/04/16 03:09:46;;;;;;;15.75;8.95;;;;;;;;;;4957681;29;20122;-62
2022/04/16 03:12:13;;;;;;;13.05;7.97;;;;;;;;;;4940130;29;20110;-62
2022/04/16 03:17:32;;;;;;;12.73;8.65;;;;;;;;;;4957412;29;20113;-62
2022/04/16 03:19:59;;;;;;;13.85;8.38;;;;;;;;;;4957226;29;20551;-62
2022/04/16 03:22:27;;;;;;;15.10;8.57;;;;;;;;;;4940115;29;20102;-63
2022/04/16 03:24:53;;;;;;;13.63;8.45;;;;;;;;;;4957419;29;20033;-62
2022/04/16 03:27:19;;;;;;;16.60;8.40;;;;;;;;;;4957498;29;20057;-61
2022/04/16 03:29:45;;;;;;;13.40;7.88;;;;;;;;;;4957376;29;20030;-62
2022/04/16 03:32:11;;;;;;;16.42;8.55;;;;;;;;;;4957568;29;20079;-62
2022/04/16 03:34:38;;;;;;;12.88;8.88;;;;;;;;;;4957237;29;20032;-63
2022/04/16 03:37:04;;;;;;;15.57;8.68;;;;;;;;;;4957272;29;20027;-63
2022/04/16 03:39:30;;;;;;;15.55;8.93;;;;;;;;;;4957183;29;20035;-63
2022/04/16 03:41:57;;;;;;;17.52;8.73;;;;;;;;;;4957039;29;20053;-63
2022/04/16 03:44:23;;;;;;;19.15;8.95;;;;;;;;;;4939836;29;20463;-63
2022/04/16 03:46:49;;;;;;;14.57;9.00;;;;;;;;;;4956824;29;20114;-62
2022/04/16 03:49:15;;;;;;;13.75;8.18;;;;;;;;;;4956986;29;20461;-63
2022/04/16 03:51:42;;;;;;;14.35;8.75;;;;;;;;;;4957237;29;20089;-62
2022/04/16 04:02:22;;;;;;;14.05;9.90;;;;;;;;;;4956574;29;20408;-63
2022/04/16 04:04:49;;;;;;;13.50;8.77;;;;;;;;;;4955712;28;20110;-63
2022/04/16 04:07:15;;;;;;;16.33;10.38;;;;;;;;;;4956692;29;20067;-64
2022/04/16 04:09:41;;;;;;;17.58;9.60;;;;;;;;;;4956868;29;20023;-62
2022/04/16 04:12:11;;;;;;;18.10;9.10;;;;;;;;;;4956605;29;20038;-63
2022/04/16 04:14:38;;;;;;;12.65;8.80;;;;;;;;;;4956516;29;20039;-63
2022/04/16 04:17:08;;;;;;;14.93;9.40;;;;;;;;;;4956539;29;20063;-63
2022/04/16 04:19:35;;;;;;;14.07;9.98;;;;;;;;;;4956355;29;20034;-63
2022/04/16 04:22:02;;;;;;;20.08;9.43;;;;;;;;;;4956402;29;20040;-63
2022/04/16 04:24:29;;;;;;;13.13;9.48;;;;;;;;;;4939096;29;20074;-62
2022/04/16 04:26:56;;;;;;;12.88;9.63;;;;;;;;;;4956306;29;20055;-63
2022/04/16 04:29:22;;;;;;;16.33;10.18;;;;;;;;;;4956254;29;20019;-62
2022/04/16 04:31:48;;;;;;;16.38;9.82;;;;;;;;;;4938862;29;20030;-63
2022/04/16 04:34:14;;;;;;;20.55;10.27;;;;;;;;;;4956166;29;20427;-62
2022/04/16 04:36:41;;;;;;;13.65;10.10;;;;;;;;;;4956380;29;20019;-62
2022/04/16 04:39:07;;;;;;;15.65;9.77;;;;;;;;;;4956039;29;20027;-62
2022/04/16 04:41:33;;;;;;;17.80;10.60;;;;;;;;;;4955933;29;20089;-62
2022/04/16 04:43:59;;;;;;;19.38;11.20;;;;;;;;;;4955975;29;20063;-62
2022/04/16 04:46:25;;;;;;;22.90;12.68;;;;;;;;;;4956187;29;20059;-62
2022/04/16 04:48:51;;;;;;;16.00;11.77;;;;;;;;;;4955945;29;20362;-62
2022/04/16 04:51:18;;;;;;;20.42;12.77;;;;;;;;;;4955841;29;20357;-62
2022/04/16 04:53:44;;;;;;;15.52;10.57;;;;;;;;;;4956029;29;20059;-63
2022/04/16 04:56:10;;;;;;;17.40;11.65;;;;;;;;;;4955802;29;20027;-63
2022/04/16 04:58:36;;;;;;;14.00;10.77;;;;;;;;;;4955744;29;20059;-63
2022/04/16 05:01:04;;;;;;;14.75;9.82;;;;;;;;;;4955620;29;20034;-62
2022/04/16 05:03:30;;;;;;;24.50;11.85;;;;;;;;;;4955650;29;20027;-62
2022/04/16 05:05:56;;;;;;;23.02;12.18;;;;;;;;;;4955717;29;20027;-63
2022/04/16 05:08:22;;;;;;;19.58;11.77;;;;;;;;;;4955727;29;20110;-63
2022/04/16 05:10:48;;;;;;;19.33;10.93;;;;;;;;;;4938293;29;20023;-63
2022/04/16 05:13:15;;;;;;;18.88;11.95;;;;;;;;;;4938289;29;20078;-63
2022/04/16 05:15:41;;;;;;;18.73;11.90;;;;;;;;;;4938050;29;20094;-62
2022/04/16 05:18:07;;;;;;;18.95;12.02;;;;;;;;;;4955452;29;20118;-62
2022/04/16 05:20:33;;;;;;;19.83;12.68;;;;;;;;;;4955108;29;20377;-63
2022/04/16 05:22:59;;;;;;;20.73;12.32;;;;;;;;;;4955067;29;20383;-62
2022/04/16 05:25:26;;;;;;;23.95;13.45;;;;;;;;;;4955305;29;20024;-63
2022/04/16 05:27:52;;;;;;;24.80;14.38;;;;;;;;;;4955364;29;20023;-62
2022/04/16 05:30:31;;;;;;;25.15;16.27;;;;;;;;;;4955474;29;20082;-62
2022/04/16 05:33:02;;;;;;;23.45;14.02;;;;;;;;;;4955277;29;20107;-62
2022/04/16 05:35:28;;;;;;;27.25;13.13;;;;;;;;;;4938003;29;20151;-62
2022/04/16 05:37:54;;;;;;;23.55;13.32;;;;;;;;;;4955223;29;20027;-63
2022/04/16 05:40:20;;;;;;;19.40;13.57;;;;;;;;;;4955007;29;20038;-64
2022/04/16 05:42:47;;;;;;;26.60;15.77;;;;;;;;;;4954746;29;20473;-63
2022/04/16 05:45:14;;;;;;;21.75;14.65;;;;;;;;;;4937783;29;20023;-62
2022/04/16 05:47:41;;;;;;;20.27;12.48;;;;;;;;;;4954764;29;20385;-62
2022/04/16 05:50:07;;;;;;;17.17;12.90;;;;;;;;;;4954986;29;20042;-62
2022/04/16 05:52:34;;;;;;;21.27;13.30;;;;;;;;;;4937717;29;20063;-63
2022/04/16 05:55:01;;;;;;;20.23;12.38;;;;;;;;;;4955178;29;20118;-62
2022/04/16 05:57:28;;;;;;;24.13;13.85;;;;;;;;;;4954608;29;20035;-63
2022/04/16 05:59:56;;;;;;;19.98;13.75;;;;;;;;;;4954883;29;20031;-63
2022/04/16 06:02:22;;;;;;;22.58;15.45;;;;;;;;;;4954888;29;20038;-63
2022/04/16 06:04:48;;;;;;;25.17;14.55;;;;;;;;;;4954878;29;20102;-63
2022/04/16 06:07:15;;;;;;;37.65;19.48;;;;;;;;;;4954832;29;20038;-62
2022/04/16 06:09:41;;;;;;;49.22;23.42;;;;;;;;;;4955085;29;20047;-63
2022/04/16 06:12:09;;;;;;;28.05;15.93;;;12.80;99.90;;;;;;4954836;29;20032;-63
2022/04/16 06:14:35;;;;;;;21.98;14.10;;;12.80;99.90;;;;;;4937479;29;20031;-63
2022/04/16 06:17:01;;;;;;;22.17;13.25;;;12.70;99.90;;;;;;4954743;29;20448;-63
2022/04/16 06:19:27;;;;;;;22.85;12.73;;;12.70;99.90;;;;;;4937503;29;20424;-63
2022/04/16 06:21:53;;;;;;;17.55;11.10;;;12.70;99.90;;;;;;4954733;29;20032;-63
2022/04/16 06:24:19;;;;;;;16.73;11.45;;;12.70;99.90;;;;;;4954714;29;20023;-64
2022/04/16 06:26:47;;;;;;;19.40;12.15;;;12.60;99.90;;;;;;4937464;28;20027;-63
2022/04/16 06:29:14;;;;;;;15.80;11.50;;;12.60;99.90;;;;;;4957960;29;20519;-62
2022/04/16 06:31:40;;;;;;;19.75;11.88;;;12.60;99.90;;;;;;4958430;29;20484;-62
2022/04/16 06:34:06;;;;;;;19.77;12.93;;;12.70;99.90;;;;;;4958396;29;20105;-63
2022/04/16 06:36:31;;;;;;;19.27;13.75;;;12.80;99.90;;;;;;4957992;29;20600;-63
2022/04/16 06:38:57;;;;;;;22.95;15.18;;;12.70;99.90;;;;;;4958531;29;20030;-63
2022/04/16 06:41:23;;;;;;;17.77;11.85;;;12.80;99.90;;;;;;4940935;29;20035;-62
2022/04/16 06:43:48;;;;;;;16.52;11.93;;;12.90;99.90;;;;;;4958407;29;20106;-63
2022/04/16 06:46:14;;;;;;;17.77;12.43;;;12.90;99.90;;;;;;4940545;29;20491;-63
2022/04/16 06:48:41;;;;;;;15.38;11.25;;;12.90;99.90;;;;;;4941070;29;20062;-64
2022/04/16 06:51:07;;;;;;;17.15;11.98;;;12.90;99.90;;;;;;4957892;29;20031;-63
2022/04/16 06:53:33;;;;;;;20.13;13.57;;;12.90;99.90;;;;;;4958042;29;20388;-63
2022/04/16 06:56:00;;;;;;;27.95;18.13;;;13.00;99.90;;;;;;4957956;29;20074;-63
2022/04/16 06:58:28;;;;;;;48.45;22.80;;;12.90;99.90;;;;;;4955177;29;20068;-64
2022/04/16 07:00:55;;;;;;;16.92;12.02;;;12.70;99.90;;;;;;4938640;29;20042;-64
2022/04/16 07:03:21;;;;;;;16.48;10.65;;;12.80;99.90;;;;;;4938868;29;20114;-65
2022/04/16 07:05:46;;;;;;;18.70;12.73;;;12.70;99.90;;;;;;4938869;29;20118;-64
2022/04/16 07:08:12;;;;;;;18.70;12.85;;;12.70;99.90;;;;;;4939728;29;20027;-65
2022/04/16 07:10:39;;;;;;;23.73;15.18;;;12.70;99.90;;;;;;4946860;29;20027;-64
2022/04/16 07:13:05;;;;;;;20.55;13.98;;;12.70;99.90;;;;;;4937794;29;20114;-64
2022/04/16 07:15:33;;;;;;;24.23;13.32;;;12.60;99.90;;;;;;4920746;29;20039;-65
2022/04/16 07:17:59;;;;;;;21.30;13.18;;;12.60;99.90;;;;;;4938233;29;20047;-63
2022/04/16 07:20:25;;;;;;;16.90;11.00;;;12.70;99.90;;;;;;4938062;29;20128;-64
2022/04/16 07:22:51;;;;;;;23.13;13.38;;;12.60;99.90;;;;;;4921095;29;20036;-64
2022/04/16 07:25:17;;;;;;;20.73;13.85;;;12.60;99.90;;;;;;4937808;29;20036;-64
2022/04/16 07:27:43;;;;;;;17.80;12.55;;;12.60;99.90;;;;;;4937959;29;20024;-64
2022/04/16 07:30:10;;;;;;;15.88;12.00;;;12.60;99.90;;;;;;4920911;29;20396;-64
2022/04/16 07:32:36;;;;;;;22.73;12.30;;;12.60;99.90;;;;;;4938263;29;20031;-63
2022/04/16 07:35:02;;;;;;;13.35;10.13;;;12.50;99.90;;;;;;4920651;29;20031;-63
2022/04/16 07:37:28;;;;;;;12.27;9.63;;;;;;;;;;4920580;29;20035;-62
2022/04/16 07:39:54;;;;;;;15.00;10.57;;;;;;;;;;4937401;29;20024;-63
2022/04/16 07:42:20;;;;;;;17.98;12.43;;;;;;;;;;4936421;29;20032;-63
2022/04/16 07:44:46;;;;;;;19.67;12.70;;;;;;;;;;4936418;29;20035;-62
2022/04/16 07:47:13;;;;;;;18.42;11.70;;;;;;;;;;4937422;29;20063;-61
2022/04/16 07:49:39;;;;;;;17.95;13.35;;;;;;;;;;4937547;29;20031;-62
2022/04/16 07:52:05;;;;;;;17.92;12.95;;;;;;;;;;4937785;29;20030;-61
2022/04/16 07:54:31;;;;;;;14.32;9.93;;;;;;;;;;4935942;29;20024;-62
2022/04/16 07:56:57;;;;;;;24.42;13.93;;;;;;;;;;4936179;29;20035;-61
2022/04/16 07:59:24;;;;;;;21.42;14.32;;;;;;;;;;4936580;29;20425;-61
2022/04/16 08:01:50;;;;;;;15.80;11.35;;;;;;;;;;4936664;29;20512;-62
2022/04/16 08:04:16;;;;;;;19.95;12.55;;;;;;;;;;4936119;29;20063;-62
2022/04/16 08:06:42;;;;;;;18.35;12.40;;;12.60;99.90;;;;;;4936574;29;20063;-62
2022/04/16 08:09:07;;;;;;;19.83;11.75;;;12.60;99.90;;;;;;4936357;29;20071;-63
2022/04/16 08:11:33;;;;;;;15.75;11.48;;;12.70;99.90;;;;;;4936003;29;20032;-62
2022/04/16 08:13:59;;;;;;;14.65;11.65;;;12.70;99.90;;;;;;4936876;29;20119;-62
2022/04/16 08:16:25;;;;;;;12.95;10.48;;;12.80;99.90;;;;;;4936975;29;20465;-62
2022/04/16 08:18:51;;;;;;;17.83;11.90;;;12.80;99.90;;;;;;4937139;29;20035;-62
2022/04/16 08:21:17;;;;;;;16.08;10.95;;;13.00;99.90;;;;;;4936925;29;20512;-62
2022/04/16 08:23:55;;;;;;;16.48;10.70;;;13.00;99.90;;;;;;4937129;29;20040;-62
2022/04/16 08:26:24;;;;;;;14.40;11.07;;;13.00;99.90;;;;;;4935811;29;20027;-62
2022/04/16 08:28:51;;;;;;;15.52;11.38;;;13.10;99.90;;;;;;4937021;29;20115;-62
2022/04/16 08:31:17;;;;;;;15.02;10.88;;;13.20;99.90;;;;;;4935588;29;20039;-62
2022/04/16 08:33:42;;;;;;;14.23;10.50;;;13.30;99.90;;;;;;4936848;29;20035;-62
2022/04/16 08:36:08;;;;;;;15.18;11.20;;;13.40;99.90;;;;;;4935461;29;20028;-61
2022/04/16 08:38:34;;;;;;;18.98;11.90;;;13.40;99.90;;;;;;4936915;29;20028;-62
2022/04/16 08:41:01;;;;;;;15.05;10.93;;;13.50;99.90;;;;;;4936651;29;20167;-62
2022/04/16 08:43:28;;;;;;;13.50;11.10;;;13.40;99.90;;;;;;4936683;29;20040;-62
2022/04/16 08:45:56;;;;;;;16.98;11.18;;;13.40;99.90;;;;;;4936665;29;20034;-64
2022/04/16 08:48:23;;;;;;;18.13;10.10;;;13.40;99.90;;;;;;4936675;29;20028;-62
2022/04/16 08:50:49;;;;;;;18.63;12.43;;;13.40;99.90;;;;;;4936056;29;20034;-62
2022/04/16 08:53:18;;;;;;;27.88;15.10;;;13.90;99.90;;;;;;4935537;29;20519;-63
2022/04/16 08:55:44;;;;;;;24.08;15.13;;;14.60;99.90;;;;;;4936414;29;20441;-62
2022/04/16 08:58:10;;;;;;;24.90;14.95;;;15.10;99.90;;;;;;4935976;29;20126;-62
2022/04/16 09:00:38;;;;;;;13.88;10.27;;;15.50;99.90;;;;;;4936187;29;20437;-63
2022/04/16 09:03:06;;;;;;;19.90;10.23;;;15.70;99.90;;;;;;4936556;29;20385;-63
2022/04/16 09:05:32;;;;;;;18.58;10.60;;;15.50;99.90;;;;;;4936248;29;20031;-63
2022/04/16 09:08:00;;;;;;;14.00;8.82;;;16.00;99.90;;;;;;4935937;29;20023;-63
2022/04/16 09:10:30;;;;;;;18.35;11.43;;;16.30;99.90;;;;;;4935878;29;20385;-64
2022/04/16 09:12:58;;;;;;;11.15;9.00;;;16.80;99.90;;;;;;4936193;29;20031;-63
2022/04/16 09:15:25;;;;;;;23.83;16.52;;;16.90;99.90;;;;;;4936034;29;20028;-63
2022/04/16 09:17:58;;;;;;;17.13;13.70;;;16.30;99.90;;;;;;4935560;29;20358;-65
2022/04/16 09:20:36;;;;;;;16.88;11.52;;;17.10;99.90;;;;;;4934774;29;20501;-64
2022/04/16 09:23:18;;;;;;;13.75;8.52;;;17.10;99.90;;;;;;4936008;29;20027;-63
2022/04/16 09:25:44;;;;;;;10.05;8.40;;;16.60;99.90;;;;;;4934859;29;20032;-63
2022/04/16 09:28:15;;;;;;;11.70;8.57;;;16.10;99.90;;;;;;4935993;29;20039;-63
2022/04/16 09:30:53;;;;;;;7.93;7.00;;;16.20;98.90;;;;;;4934769;29;20043;-63
2022/04/16 09:33:19;;;;;;;10.93;9.40;;;16.40;99.20;;;;;;4936000;29;20032;-64
2022/04/16 09:35:46;;;;;;;17.63;9.50;;;16.10;99.60;;;;;;4920379;29;20039;-64
2022/04/16 09:38:15;;;;;;;9.60;8.02;;;15.80;97.60;;;;;;4934676;29;20476;-64
2022/04/16 09:40:45;;;;;;;19.90;8.07;;;15.90;98.00;;;;;;4935394;29;20089;-64
2022/04/16 09:43:10;;;;;;;14.57;8.30;;;16.20;98.40;;;;;;4935414;29;20385;-63
2022/04/16 09:45:40;;;;;;;9.82;8.10;;;16.30;98.90;;;;;;4935570;29;20032;-65
2022/04/16 09:48:11;;;;;;;23.75;9.35;;;16.60;96.60;;;;;;4918688;29;20429;-63
2022/04/16 09:50:38;;;;;;;14.75;7.55;;;16.40;97.10;;;;;;4935755;29;20098;-63
2022/04/16 09:53:06;;;;;;;11.40;8.40;;;16.30;97.40;;;;;;4935973;29;20047;-63
2022/04/16 09:55:32;;;;;;;8.63;7.80;;;16.10;97.90;;;;;;4935704;29;20038;-63
2022/04/16 09:58:03;;;;;;;12.35;8.75;;;16.20;97.80;;;;;;4935188;29;20055;-63
2022/04/16 10:00:41;;;;;;;9.52;8.15;;;16.70;98.40;;;;;;4917791;29;20054;-63
2022/04/16 10:03:07;;;;;;;9.95;7.47;;;16.60;95.00;;;;;;4935356;29;20040;-63
2022/04/16 10:05:34;;;;;;;9.32;7.22;;;16.30;96.60;;;;;;4938711;29;20039;-63
2022/04/16 10:08:00;;;;;;;9.50;7.28;;;16.10;96.40;;;;;;4939463;29;20078;-63
2022/04/16 10:10:30;;;;;;;8.38;6.82;;;16.50;96.30;;;;;;4939603;29;20545;-63
2022/04/16 10:13:05;;;;;;;8.20;6.65;;;17.20;96.00;;;;;;4922205;29;20122;-63
2022/04/16 10:16:28;;;;;;;20.85;7.47;;;17.10;94.70;;;;;;4939564;29;20541;-63
2022/04/16 10:18:54;;;;;;;5.40;3.75;;;16.80;91.90;;;;;;4880279;29;20037;-63
2022/04/16 10:21:20;;;;;;;7.30;5.25;;;16.70;91.60;;;;;;4880283;29;20044;-63
2022/04/16 10:23:46;;;;;;;8.15;6.85;;;17.60;91.40;;;;;;4880387;29;20057;-63
2022/04/16 10:26:16;;;;;;;17.55;8.70;;;17.80;88.30;;;;;;4880419;29;20510;-63
2022/04/16 10:28:50;;;;;;;8.00;5.18;;;17.10;88.80;;;;;;4880338;29;20512;-63
2022/04/16 10:31:20;;;;;;;7.00;3.72;;;;;;;;;;4880310;29;20045;-63
2022/04/16 10:34:08;;;;;;;5.25;4.35;;;;;;;;;;4880209;29;20029;-63
2022/04/16 10:36:37;;;;;;;23.02;5.72;;;17.50;89.00;;;;;;4880132;29;20044;-63
2022/04/16 10:39:19;;;;;;;11.85;4.55;;;20.30;80.10;;;;;;4880173;29;20041;-63
2022/04/16 10:41:55;;;;;;;4.30;3.70;;;;;;;;;;4880099;29;20041;-63
2022/04/16 10:44:22;;;;;;;4.97;3.30;;;20.70;77.60;;;;;;4879913;29;20085;-63
2022/04/16 10:46:50;;;;;;;4.90;3.95;;;20.90;71.80;;;;;;4864308;29;20033;-63
2022/04/16 10:49:17;;;;;;;6.68;4.32;;;19.70;76.70;;;;;;4899827;29;20055;-63
2022/04/16 10:51:44;;;;;;;9.18;4.30;;;18.70;78.90;;;;;;4938842;29;20035;-63
2022/04/16 10:54:16;;;;;;;5.28;3.58;;;;;;;;;;4938784;29;20036;-63
2022/04/16 10:56:52;;;;;;;45.13;23.85;;;;;;;;;;4938415;29;20388;-63
2022/04/16 10:59:18;;;;;;;13.63;8.55;;;21.70;70.70;;;;;;4938363;29;20151;-63
2022/04/16 11:01:53;;;;;;;53.55;28.08;;;21.70;70.20;;;;;;4938597;29;20039;-63
2022/04/16 11:04:19;;;;;;;6.82;3.22;;;20.60;71.40;;;;;;4938675;29;20122;-64
2022/04/16 11:06:48;;;;;;;10.20;4.82;;;22.20;67.90;;;;;;4938574;29;20115;-63
2022/04/16 11:09:17;;;;;;;4.88;2.75;;;;;;;;;;4938513;29;20036;-64
2022/04/16 11:11:43;;;;;;;17.42;11.75;;;22.20;66.10;;;;;;4938568;29;20058;-63
2022/04/16 11:14:10;;;;;;;36.13;22.77;;;21.60;67.00;;;;;;4937948;29;20059;-63
2022/04/16 11:16:46;;;;;;;2.65;2.42;;;22.20;66.00;;;;;;4938493;29;20035;-63
2022/04/16 11:19:15;;;;;;;3.38;2.85;;;21.10;65.20;;;;;;4938385;29;20024;-63
2022/04/16 11:21:42;;;;;;;2.50;2.30;;;;;;;;;;4921171;29;20533;-63
2022/04/16 11:24:09;;;;;;;21.30;3.97;;;;;;;;;;4938269;29;20032;-63
2022/04/16 11:34:55;;;;;;;20.30;4.15;;;;;;;;;;4938124;29;20031;-63
2022/04/16 11:37:21;;;;;;;10.52;3.50;;;24.50;56.80;;;;;;4938014;29;20433;-63
2022/04/16 11:39:57;;;;;;;3.92;2.47;;;23.30;60.50;;;;;;4937980;29;20123;-64
2022/04/16 11:42:24;;;;;;;4.25;3.25;;;21.80;62.20;;;;;;4937979;29;20039;-63
2022/04/16 11:44:52;;;;;;;3.95;2.95;;;;;;;;;;4920728;29;20070;-63
2022/04/16 11:47:25;;;;;;;6.15;3.55;;;24.50;59.40;;;;;;4937855;29;20051;-63
2022/04/16 11:49:53;;;;;;;2.85;2.20;;;;;;;;;;4937866;29;20027;-64
2022/04/16 11:52:27;;;;;;;6.13;2.60;;;25.10;57.60;;;;;;4920602;29;20039;-63
2022/04/16 11:55:18;;;;;;;5.25;2.40;;;22.20;60.50;;;;;;4937329;29;20445;-63
2022/04/16 11:57:45;;;;;;;6.17;3.53;;;20.80;64.80;;;;;;4937639;29;20115;-63
2022/04/16 12:00:12;;;;;;;4.65;3.17;;;19.80;67.70;;;;;;4937510;29;20102;-63
2022/04/16 12:02:40;;;;;;;3.80;2.75;;;19.30;68.90;;;;;;4937490;29;20036;-63
2022/04/16 12:05:12;;;;;;;6.40;3.22;;;19.20;70.00;;;;;;4937465;29;20440;-63
2022/04/16 12:07:43;;;;;;;2.70;2.50;;;19.10;70.00;;;;;;4937409;29;20035;-63
2022/04/16 12:10:12;;;;;;;2.40;2.20;;;19.00;69.80;;;;;;4937326;29;20485;-63
2022/04/16 12:12:49;;;;;;;2.80;2.58;;;18.70;70.50;;;;;;4936809;29;20389;-63
2022/04/16 12:15:31;;;;;;;3.97;2.40;;;19.60;70.40;;;;;;4937285;29;20023;-63
2022/04/16 12:18:08;;;;;;;3.60;2.17;;;20.70;65.80;;;;;;4920221;29;20028;-63
2022/04/16 12:20:33;;;;;;;2.35;2.15;;;20.40;65.40;;;;;;4937005;29;20046;-63
2022/04/16 12:23:03;;;;;;;3.25;2.60;;;20.80;65.50;;;;;;4937504;29;20027;-63
2022/04/16 12:25:29;;;;;;;3.58;2.60;;;20.80;65.80;;;;;;4936346;29;20034;-63
2022/04/16 12:27:57;;;;;;;6.60;3.75;;;;;;;;;;4937076;29;20024;-63
2022/04/16 12:30:24;;;;;;;2.53;2.33;;;20.40;65.30;;;;;;4937124;29;20059;-63
2022/04/16 12:33:00;;;;;;;4.63;2.50;;;;;;;;;;4937296;29;20036;-63
2022/04/16 12:35:28;;;;;;;3.10;2.80;;;21.40;63.90;;;;;;4936985;29;20023;-64
2022/04/16 12:37:56;;;;;;;3.85;2.88;;;24.70;60.70;;;;;;4919756;29;20034;-64
2022/04/16 12:40:23;;;;;;;3.50;2.72;;;25.70;55.40;;;;;;4936647;29;20595;-63
2022/04/16 12:42:49;;;;;;;3.92;2.72;;;28.20;52.50;;;;;;4936580;29;20036;-64
2022/04/16 12:45:15;;;;;;;3.13;1.98;;;28.20;52.30;;;;;;4936774;29;20046;-64
2022/04/16 12:47:41;;;;;;;3.28;2.00;;;25.50;53.40;;;;;;4936712;29;20027;-64
2022/04/16 12:50:09;;;;;;;4.20;2.08;;;23.90;55.90;;;;;;4936692;29;20031;-64
2022/04/16 12:52:35;;;;;;;5.75;1.98;;;22.00;60.40;;;;;;4936771;29;20019;-64
2022/04/16 12:55:01;;;;;;;2.00;1.90;;;21.40;61.60;;;;;;4936646;29;20028;-64
2022/04/16 12:57:26;;;;;;;2.17;1.98;;;20.30;65.00;;;;;;4936309;29;20046;-63
2022/04/16 12:59:52;;;;;;;3.70;2.20;;;19.80;66.60;;;;;;4936551;29;20024;-63
2022/04/16 13:02:18;;;;;;;7.43;2.03;;;19.70;66.60;;;;;;4936326;29;20451;-63
2022/04/16 13:04:44;;;;;;;3.78;2.17;;;19.30;66.70;;;;;;4936329;29;20122;-63
2022/04/16 13:07:10;;;;;;;3.10;2.38;;;18.50;68.30;;;;;;4919229;29;20218;-63
2022/04/16 13:09:36;;;;;;;4.40;2.53;;;18.40;69.30;;;;;;4936353;29;20473;-63
2022/04/16 13:12:03;;;;;;;8.30;4.97;;;18.10;69.80;;;;;;4936350;29;20047;-63
2022/04/16 13:14:28;;;;;;;2.35;1.77;;;18.00;70.30;;;;;;4936313;29;20028;-63
2022/04/16 13:16:55;;;;;;;1.65;1.55;;;17.90;70.00;;;;;;4935992;29;20028;-63
2022/04/16 13:19:22;;;;;;;2.10;1.58;;;17.90;70.00;;;;;;4936253;29;20032;-63
2022/04/16 13:21:52;;;;;;;1.52;1.42;;;17.90;69.30;;;;;;4936152;29;20039;-63
2022/04/16 13:24:18;;;;;;;1.15;1.10;;;17.90;69.70;;;;;;4936115;29;20476;-63
2022/04/16 13:26:45;;;;;;;2.97;2.42;;;18.40;69.20;;;;;;4936097;29;20070;-63
2022/04/16 13:29:12;;;;;;;3.50;2.38;;;18.40;69.10;;;;;;4936063;29;20469;-63
2022/04/16 13:31:38;;;;;;;4.95;2.53;;;18.30;67.90;;;;;;4918969;29;20042;-63
2022/04/16 13:34:04;;;;;;;5.00;1.50;;;18.10;67.50;;;;;;4919220;29;20084;-63
2022/04/16 13:36:30;;;;;;;7.25;2.30;;;18.00;67.20;;;;;;4935838;29;20034;-63
2022/04/16 13:38:56;;;;;;;2.38;1.00;;;17.90;68.60;;;;;;4918578;29;20027;-63
2022/04/16 13:41:38;;;;;;;3.00;1.42;;;17.70;70.10;;;;;;4935930;29;20039;-63